Time;durP1;ratioP1;P1;durP2;ratioP2;P2;SDS_P1;SDS_P2;PMS_P1;PMS_P2;Temp;Humidity;BMP_temperature;BMP_pressure;BME280_temperature;BME280_humidity;BME280_pressure;Samples;Min_cycle;Max_cycle;Signal;HPM_P1;HPM_P2
2023/01/30 00:00:18;;;;;;;0.32;0.32;;;;;;;5.93;100.00;100262.69;4932283;29;20436;-66
2023/01/30 00:02:44;;;;;;;0.98;0.85;;;;;;;5.99;100.00;100245.34;4935335;29;20142;-66
2023/01/30 00:05:29;;;;;;;0.73;0.73;;;;;;;5.73;100.00;100236.84;4930465;29;20038;-65
2023/01/30 00:07:55;;;;;;;0.38;0.38;;;;;;;5.89;100.00;100229.75;4879148;29;20092;-66
2023/01/30 00:10:20;;;;;;;0.88;0.88;;;;;;;5.94;100.00;100224.19;4883296;29;20076;-66
2023/01/30 00:12:46;;;;;;;0.47;0.47;;;;;;;5.93;100.00;100226.06;4878729;29;20132;-66
2023/01/30 00:15:11;;;;;;;0.90;0.80;;;;;;;5.97;100.00;100235.00;4883463;29;20041;-66
2023/01/30 00:17:36;;;;;;;0.50;0.50;;;;;;;5.99;100.00;100218.63;4886496;29;20036;-66
2023/01/30 00:20:03;;;;;;;1.50;1.15;;;;;;;6.01;100.00;100211.03;4878145;29;20052;-66
2023/01/30 00:22:28;;;;;;;1.30;0.95;;;;;;;5.97;100.00;100199.47;4866659;29;20509;-65
2023/01/30 00:24:54;;;;;;;2.30;0.47;;;;;;;5.91;100.00;100206.94;4858468;29;20057;-66
2023/01/30 00:27:19;;;;;;;0.90;0.90;;;;;;;5.89;100.00;100192.34;4864893;29;20060;-66
2023/01/30 00:29:45;;;;;;;0.38;0.38;;;;;;;5.96;100.00;100190.66;4858237;29;20044;-65
2023/01/30 00:32:11;;;;;;;0.93;0.93;;;;;;;5.99;100.00;100165.16;4882024;29;20049;-66
2023/01/30 00:34:39;;;;;;;1.73;1.63;;;;;;;5.93;100.00;100175.31;4857346;29;20465;-66
2023/01/30 00:37:04;;;;;;;0.70;0.70;;;;;;;6.12;100.00;100167.50;4865610;29;20128;-66
2023/01/30 00:39:29;;;;;;;0.30;0.30;;;;;;;6.07;100.00;100162.38;4860047;29;20041;-66
2023/01/30 00:47:23;;;;;;;1.00;0.77;;;;;;;5.94;100.00;100152.81;4932769;29;20042;-65
2023/01/30 00:49:52;;;;;;;0.20;0.20;;;;;;;5.87;100.00;100138.47;4933970;29;20091;-65
2023/01/30 00:52:17;;;;;;;0.60;0.60;;;;;;;5.98;100.00;100134.22;4932594;29;20043;-66
2023/01/30 00:54:42;;;;;;;0.60;0.60;;;;;;;6.15;100.00;100129.41;4926937;29;20050;-66
2023/01/30 00:57:08;;;;;;;0.47;0.47;;;;;;;6.30;100.00;100123.34;4931206;29;20024;-66
2023/01/30 00:59:33;;;;;;;0.60;0.60;;;;;;;6.29;100.00;100104.97;4934419;29;20113;-65
2023/01/30 01:01:59;;;;;;;0.85;0.85;;;;;;;6.29;100.00;100105.75;4933779;29;20039;-66
2023/01/30 01:04:24;;;;;;;0.70;0.70;;;;;;;6.29;100.00;100088.94;4928467;29;20079;-67
2023/01/30 01:06:50;;;;;;;0.70;0.70;;;;;;;6.23;100.00;100084.94;4930600;29;20035;-66
2023/01/30 01:09:15;;;;;;;0.20;0.20;;;;;;;6.17;100.00;100097.00;4949139;29;20051;-65
2023/01/30 01:11:41;;;;;;;0.30;0.30;;;;;;;5.86;100.00;100100.31;4933969;29;20036;-66
2023/01/30 01:14:06;;;;;;;0.32;0.32;;;;;;;6.23;100.00;100079.59;4928903;29;20785;-65
2023/01/30 01:16:33;;;;;;;0.50;0.50;;;;;;;6.46;100.00;100085.19;4948091;29;20024;-65
2023/01/30 01:18:59;;;;;;;0.70;0.70;;;;;;;6.37;100.00;100072.75;4938549;29;20409;-65
2023/01/30 01:21:24;;;;;;;0.40;0.40;;;;;;;6.35;100.00;100077.66;4934190;29;20042;-66
2023/01/30 01:23:54;;;;;;;0.40;0.40;;;;;;;6.24;100.00;100071.25;4928599;29;20043;-66
2023/01/30 01:26:20;;;;;;;0.20;0.20;;;;;;;6.43;100.00;100083.97;4929611;29;20031;-66
2023/01/30 01:28:46;;;;;;;1.55;0.85;;;;;;;6.47;100.00;100058.09;4932951;29;20066;-65
2023/01/30 01:31:13;;;;;;;0.65;0.65;;;;;;;6.38;100.00;100052.91;4948726;29;20060;-65
2023/01/30 01:33:39;;;;;;;0.60;0.60;;;;;;;6.39;100.00;100053.69;4927131;29;20110;-67
2023/01/30 01:36:05;;;;;;;0.70;0.70;;;;;;;6.51;100.00;100040.25;4933702;29;20106;-67
2023/01/30 01:38:31;;;;;;;0.77;0.55;;;;;;;6.61;100.00;100053.13;4948735;29;20544;-66
2023/01/30 01:41:02;;;;;;;0.35;0.35;;;;;;;6.31;100.00;100033.22;4933429;29;20035;-66
2023/01/30 01:44:04;;;;;;;0.30;0.30;;;;;;;6.50;100.00;100022.66;4934664;29;20496;-67
2023/01/30 01:46:43;;;;;;;1.02;0.88;;;;;;;6.50;100.00;100014.66;4952181;23;20051;-47
2023/01/30 01:49:19;;;;;;;0.50;0.50;;;;;;;6.45;100.00;100016.75;4967087;28;20050;-55
2023/01/30 01:51:51;;;;;;;0.70;0.47;;;;;;;6.64;100.00;100004.28;4938581;29;20031;-46
2023/01/30 01:54:32;;;;;;;0.57;0.57;;;;;;;6.75;100.00;99989.31;4943935;29;20043;-45
2023/01/30 01:57:03;;;;;;;0.55;0.55;;;;;;;6.74;100.00;100011.81;4948721;29;20046;-50
2023/01/30 01:59:36;;;;;;;0.85;0.73;;;;;;;6.60;100.00;100002.66;4950894;29;20117;-50
2023/01/30 02:02:07;;;;;;;1.20;0.60;;;;;;;6.69;100.00;99995.25;4947570;28;20023;-49
2023/01/30 02:07:22;;;;;;;0.57;0.57;;;;;;;6.61;100.00;99978.25;4942222;28;20041;-54
2023/01/30 02:09:50;;;;;;;0.40;0.40;;;;;;;6.52;100.00;99980.31;4950042;29;20024;-45
2023/01/30 02:12:16;;;;;;;1.15;0.85;;;;;;;6.51;100.00;99984.09;4947287;28;20119;-51
2023/01/30 02:14:42;;;;;;;0.30;0.30;;;;;;;6.75;100.00;99983.94;4952672;28;20035;-51
2023/01/30 02:17:08;;;;;;;0.77;0.77;;;;;;;6.74;100.00;99984.28;4949172;29;20278;-46
2023/01/30 02:20:00;;;;;;;3.83;0.75;;;;;;;6.86;100.00;99974.28;4944959;29;20742;-45
2023/01/30 02:22:35;;;;;;;0.50;0.50;;;;;;;6.88;100.00;99953.28;4952364;28;20060;-47
2023/01/30 02:25:39;;;;;;;1.15;1.05;;;;;;;6.86;100.00;99962.78;4946909;29;20032;-54
2023/01/30 02:28:34;;;;;;;0.30;0.30;;;;;;;6.75;100.00;99951.84;4946856;29;20050;-54
2023/01/30 02:31:20;;;;;;;0.28;0.28;;;;;;;6.84;100.00;99951.66;4950015;29;20482;-46
2023/01/30 02:33:55;;;;;;;0.30;0.30;;;;;;;7.00;100.00;99952.41;4943340;29;20036;-45
2023/01/30 02:36:42;;;;;;;0.47;0.47;;;;;;;7.06;100.00;99943.00;4950863;28;20711;-48
2023/01/30 02:40:06;;;;;;;0.20;0.20;;;;;;;6.84;100.00;99938.28;4946835;28;20086;-46
2023/01/30 02:42:47;;;;;;;0.68;0.68;;;;;;;7.11;100.00;99943.50;4833573;29;20076;-48
2023/01/30 02:45:36;;;;;;;0.63;0.63;;;;;;;7.00;100.00;99931.00;4857826;29;20184;-46
2023/01/30 02:48:06;;;;;;;0.50;0.50;;;;;;;7.04;100.00;99915.81;4927041;29;20050;-50
2023/01/30 02:50:46;;;;;;;0.20;0.20;;;;;;;7.01;100.00;99924.50;4944290;29;20058;-53
2023/01/30 02:53:12;;;;;;;0.23;0.23;;;;;;;7.05;100.00;99914.66;4949852;29;20035;-50
2023/01/30 02:55:41;;;;;;;0.32;0.32;;;;;;;6.92;100.00;99908.66;4937050;28;20027;-50
2023/01/30 02:58:08;;;;;;;0.50;0.50;;;;;;;6.94;100.00;99927.81;4949036;29;20031;-46
2023/01/30 03:01:02;;;;;;;0.30;0.30;;;;;;;6.94;100.00;99902.97;4951376;29;20042;-49
2023/01/30 03:03:31;;;;;;;0.75;0.75;;;;;;;6.64;100.00;99885.84;4937585;29;20042;-45
2023/01/30 03:06:17;;;;;;;0.22;0.22;;;;;;;6.86;100.00;99918.06;4937457;29;20039;-47
2023/01/30 03:08:52;;;;;;;0.30;0.30;;;;;;;7.14;100.00;99908.00;4951225;29;20394;-45
2023/01/30 03:11:23;;;;;;;0.20;0.20;;;;;;;7.11;100.00;99900.66;4949708;29;20437;-50
2023/01/30 03:13:58;;;;;;;1.17;1.05;;;;;;;6.90;100.00;99900.22;4936056;29;22090;-45
2023/01/30 03:16:36;;;;;;;0.22;0.22;;;;;;;6.87;100.00;99886.75;4949698;29;20031;-45
2023/01/30 03:19:05;;;;;;;0.43;0.43;;;;;;;7.14;100.00;99883.91;4947185;29;20082;-48
2023/01/30 03:21:32;;;;;;;0.20;0.20;;;;;;;7.09;100.00;99876.16;4950604;28;20482;-47
2023/01/30 03:23:57;;;;;;;0.40;0.40;;;;;;;7.14;100.00;99880.47;4949892;29;20035;-46
2023/01/30 03:26:31;;;;;;;0.50;0.50;;;;;;;7.00;100.00;99872.13;4950415;29;20463;-47
2023/01/30 03:29:00;;;;;;;0.40;0.40;;;;;;;7.34;100.00;99865.94;4941732;29;20062;-49
2023/01/30 03:31:25;;;;;;;0.50;0.50;;;;;;;7.38;100.00;99864.13;4945615;29;20086;-45
2023/01/30 03:33:51;;;;;;;0.43;0.43;;;;;;;7.45;100.00;99836.72;4949738;29;20110;-48
2023/01/30 03:36:16;;;;;;;0.30;0.30;;;;;;;7.32;100.00;99850.25;4948236;29;20039;-51
2023/01/30 03:38:44;;;;;;;0.88;0.57;;;;;;;7.29;100.00;99837.56;4950964;29;20027;-46
2023/01/30 03:41:09;;;;;;;0.30;0.30;;;;;;;7.41;100.00;99838.53;4952746;29;20528;-48
2023/01/30 03:43:35;;;;;;;0.25;0.25;;;;;;;7.54;100.00;99815.81;4936576;29;20410;-49
2023/01/30 03:46:02;;;;;;;0.52;0.47;;;;;;;7.53;100.00;99828.44;4945242;28;20031;-45
2023/01/30 03:48:28;;;;;;;0.43;0.40;;;;;;;7.41;100.00;99830.50;4944051;28;20020;-45
2023/01/30 03:50:54;;;;;;;0.13;0.13;;;;;;;7.28;100.00;99817.25;4951483;29;20094;-46
2023/01/30 03:53:20;;;;;;;0.10;0.10;;;;;;;7.28;100.00;99811.91;4944338;29;20130;-51
2023/01/30 03:55:45;;;;;;;1.17;1.00;;;;;;;7.24;100.00;99819.09;4938913;29;20037;-54
2023/01/30 03:58:11;;;;;;;0.20;0.20;;;;;;;7.50;100.00;99804.28;4944656;29;20031;-46
2023/01/30 04:00:38;;;;;;;0.20;0.20;;;;;;;7.61;100.00;99799.88;4941100;29;20031;-57
2023/01/30 04:03:03;;;;;;;0.52;0.45;;;;;;;7.74;100.00;99806.63;4943687;29;20031;-46
2023/01/30 04:05:30;;;;;;;0.40;0.40;;;;;;;7.43;100.00;99804.94;4939983;29;20035;-46
2023/01/30 04:08:01;;;;;;;;;;;;;;;7.55;100.00;99796.72;4949998;29;20109;-46
2023/01/30 04:10:27;;;;;;;0.20;0.20;;;;;;;7.42;100.00;99808.72;4947577;28;20013;-45
2023/01/30 04:12:53;;;;;;;0.20;0.20;;;;;;;7.21;100.00;99808.31;4952782;29;20039;-46
2023/01/30 04:15:19;;;;;;;0.20;0.20;;;;;;;7.54;100.00;99794.41;4945580;29;20493;-49
2023/01/30 04:18:09;;;;;;;0.20;0.20;;;;;;;7.58;100.00;99795.25;4946489;29;20032;-46
2023/01/30 04:20:47;;;;;;;0.32;0.32;;;;;;;7.65;100.00;99785.41;4941414;29;20035;-48
2023/01/30 04:23:16;;;;;;;0.52;0.50;;;;;;;7.60;100.00;99792.97;4944969;28;20040;-45
2023/01/30 04:25:45;;;;;;;0.30;0.30;;;;;;;7.55;100.00;99780.63;4946108;29;20042;-45
2023/01/30 04:28:12;;;;;;;0.30;0.30;;;;;;;7.60;100.00;99782.25;4942621;29;20386;-45
2023/01/30 04:30:37;;;;;;;0.20;0.20;;;;;;;7.45;100.00;99785.81;4946537;29;20031;-48
2023/01/30 04:33:22;;;;;;;0.20;0.20;;;;;;;7.47;100.00;99791.59;4950644;29;20074;-45
2023/01/30 04:35:56;;;;;;;0.57;0.50;;;;;;;7.49;100.00;99802.72;4951475;29;20087;-45
2023/01/30 04:38:22;;;;;;;0.40;0.40;;;;;;;7.44;100.00;99803.78;4948560;29;20435;-44
2023/01/30 04:40:53;;;;;;;0.10;0.10;;;;;;;7.52;100.00;99812.72;4964086;28;20038;-48
2023/01/30 04:43:20;;;;;;;0.35;0.35;;;;;;;7.34;100.00;99814.31;4950842;29;20031;-45
2023/01/30 04:45:47;;;;;;;0.82;0.82;;;;;;;7.18;100.00;99815.13;4953271;28;20129;-46
2023/01/30 04:48:14;;;;;;;1.00;0.55;;;;;;;7.26;100.00;99832.91;4949798;29;20028;-45
2023/01/30 04:50:42;;;;;;;0.80;0.63;;;;;;;7.44;100.00;99819.06;4949914;29;20102;-45
2023/01/30 04:53:09;;;;;;;0.30;0.30;;;;;;;7.34;100.00;99820.41;4950301;29;20034;-51
2023/01/30 04:55:35;;;;;;;0.35;0.35;;;;;;;7.28;100.00;99819.94;4950806;29;20090;-45
2023/01/30 04:58:01;;;;;;;0.10;0.10;;;;;;;7.40;100.00;99824.38;4952059;29;20805;-45
2023/01/30 05:00:27;;;;;;;0.10;0.10;;;;;;;7.41;100.00;99825.16;4951935;29;20031;-47
2023/01/30 05:02:57;;;;;;;0.30;0.30;;;;;;;7.36;100.00;99817.38;4940326;29;20137;-45
2023/01/30 05:05:23;;;;;;;0.22;0.22;;;;;;;7.41;100.00;99807.19;4939665;28;20039;-49
2023/01/30 05:07:49;;;;;;;0.30;0.30;;;;;;;7.40;100.00;99804.84;4944534;29;20050;-45
2023/01/30 05:10:15;;;;;;;0.20;0.20;;;;;;;7.57;100.00;99799.06;4942994;29;20490;-46
2023/01/30 05:12:41;;;;;;;0.95;0.20;;;;;;;7.56;100.00;99805.53;4952642;28;20078;-45
2023/01/30 05:15:07;;;;;;;0.30;0.30;;;;;;;7.50;100.00;99801.59;4953044;28;20498;-56
2023/01/30 05:17:33;;;;;;;0.20;0.20;;;;;;;7.67;100.00;99809.16;4950599;28;20208;-51
2023/01/30 05:19:59;;;;;;;0.10;0.10;;;;;;;7.66;100.00;99810.31;4953590;29;20035;-51
2023/01/30 05:22:24;;;;;;;0.17;0.17;;;;;;;7.63;100.00;99798.41;4952797;28;20478;-45
2023/01/30 05:24:50;;;;;;;0.15;0.15;;;;;;;7.68;100.00;99800.03;4947546;29;20023;-45
2023/01/30 05:27:16;;;;;;;0.10;0.10;;;;;;;7.49;100.00;99797.38;4952082;29;20026;-45
2023/01/30 05:29:41;;;;;;;1.20;0.85;;;;;;;7.28;100.00;99795.06;4949851;28;20035;-46
2023/01/30 05:32:11;;;;;;;0.17;0.17;;;;;;;7.36;100.00;99806.69;4949021;29;20425;-53
2023/01/30 05:34:37;;;;;;;1.42;0.63;;;;;;;7.54;100.00;99799.75;4945006;29;20122;-45
2023/01/30 05:37:02;;;;;;;0.20;0.20;;;;;;;7.46;100.00;99801.53;4952662;28;20118;-46
2023/01/30 05:39:27;;;;;;;0.10;0.10;;;;;;;7.42;100.00;99802.59;4946917;28;20038;-50
2023/01/30 05:41:53;;;;;;;0.20;0.20;;;;;;;7.53;100.00;99814.28;4953256;28;20117;-47
2023/01/30 05:44:18;;;;;;;0.10;0.10;;;;;;;7.58;100.00;99804.06;4952637;28;20039;-45
2023/01/30 05:46:44;;;;;;;0.10;0.10;;;;;;;7.56;100.00;99786.78;4952713;28;20054;-48
2023/01/30 05:49:09;;;;;;;0.10;0.10;;;;;;;7.57;100.00;99799.81;4945067;28;20027;-52
2023/01/30 05:51:34;;;;;;;0.10;0.10;;;;;;;7.28;100.00;99793.16;4945092;29;20050;-50
2023/01/30 05:54:00;;;;;;;0.20;0.20;;;;;;;7.46;100.00;99798.06;4941393;28;20067;-55
2023/01/30 05:56:25;;;;;;;0.20;0.20;;;;;;;7.76;100.00;99786.38;4944220;29;20606;-45
2023/01/30 05:58:55;;;;;;;0.15;0.15;;;;;;;7.29;100.00;99797.41;4949849;28;20042;-52
2023/01/30 06:01:21;;;;;;;0.20;0.20;;;;;;;7.40;100.00;99800.28;4941025;28;20035;-47
2023/01/30 06:03:48;;;;;;;0.20;0.20;;;;;;;7.39;100.00;99785.34;4948675;28;20379;-50
2023/01/30 06:06:13;;;;;;;0.20;0.20;;;;;;;7.03;100.00;99791.91;4931672;29;20120;-47
2023/01/30 06:08:39;;;;;;;0.57;0.57;;;;;;;6.86;100.00;99788.84;4936366;29;20033;-45
2023/01/30 06:11:17;;;;;;;0.20;0.20;;;;;;;6.90;100.00;99785.13;4944398;29;20499;-47
2023/01/30 06:13:43;;;;;;;0.20;0.20;;;;;;;7.00;100.00;99787.25;4947072;29;20043;-48
2023/01/30 06:16:11;;;;;;;0.68;0.68;;;;;;;6.93;100.00;99797.06;4931771;29;20043;-46
2023/01/30 06:18:37;;;;;;;0.10;0.10;;;;;;;7.00;100.00;99797.19;4933017;29;20039;-52
2023/01/30 06:21:03;;;;;;;0.20;0.20;;;;;;;7.02;100.00;99793.03;4934018;28;20487;-52
2023/01/30 06:23:29;;;;;;;0.20;0.20;;;;;;;6.98;100.00;99800.22;4932102;28;20047;-54
2023/01/30 06:25:55;;;;;;;0.10;0.10;;;;;;;6.80;100.00;99801.75;4943946;28;20494;-51
2023/01/30 06:28:22;;;;;;;0.20;0.20;;;;;;;6.77;100.00;99781.06;4950590;28;20037;-46
2023/01/30 06:30:48;;;;;;;0.20;0.20;;;;;;;6.95;100.00;99800.16;4946785;28;20058;-50
2023/01/30 06:33:13;;;;;;;0.20;0.20;;;;;;;7.00;100.00;99797.97;4951021;29;20066;-47
2023/01/30 06:35:40;;;;;;;0.20;0.20;;;;;;;6.82;100.00;99815.53;4951611;28;20106;-45
2023/01/30 06:38:10;;;;;;;0.20;0.20;;;;;;;6.85;100.00;99809.47;4944565;28;20071;-47
2023/01/30 06:40:36;;;;;;;0.10;0.10;;;;;;;7.06;100.00;99801.13;4949631;29;20073;-48
2023/01/30 06:43:02;;;;;;;0.30;0.30;;;;;;;7.01;100.00;99799.50;4952299;28;20031;-47
2023/01/30 06:45:28;;;;;;;1.20;1.20;;;;;;;6.80;100.00;99808.97;4950949;28;20118;-46
2023/01/30 06:47:54;;;;;;;0.20;0.20;;;;;;;6.74;100.00;99805.81;4946846;28;20113;-45
2023/01/30 06:50:23;;;;;;;0.13;0.13;;;;;;;6.78;100.00;99812.00;4936831;28;20035;-52
2023/01/30 06:52:50;;;;;;;0.20;0.20;;;;;;;6.58;100.00;99817.69;4935177;28;20035;-45
2023/01/30 06:55:18;;;;;;;0.20;0.20;;;;;;;6.55;100.00;99821.81;4946359;28;20042;-50
2023/01/30 06:57:44;;;;;;;0.10;0.10;;;;;;;6.57;100.00;99816.91;4931378;29;20043;-45
2023/01/30 07:00:13;;;;;;;0.20;0.20;;;;;;;6.62;100.00;99821.97;4935190;28;20035;-45
2023/01/30 07:02:39;;;;;;;0.40;0.40;;;;;;;6.47;100.00;99822.78;4934331;29;20090;-51
2023/01/30 07:05:06;;;;;;;0.20;0.20;;;;;;;6.74;100.00;99821.06;4941885;29;21179;-51
2023/01/30 07:07:32;;;;;;;0.20;0.20;;;;;;;6.45;100.00;99829.59;4940365;28;20450;-49
2023/01/30 07:09:58;;;;;;;0.10;0.10;;;;;;;6.37;100.00;99831.31;4937833;29;20438;-45
2023/01/30 07:12:25;;;;;;;0.20;0.20;;;;;;;6.65;100.00;99837.34;4945047;28;20047;-45
2023/01/30 07:14:53;;;;;;;0.50;0.20;;;;;;;7.06;100.00;99834.03;4946784;29;20039;-45
2023/01/30 07:17:20;;;;;;;0.17;0.17;;;;;;;7.09;100.00;99827.97;4940695;29;20039;-55
2023/01/30 07:19:46;;;;;;;0.20;0.20;;;;;;;6.90;100.00;99827.16;4947447;29;20046;-46
2023/01/30 07:22:11;;;;;;;0.63;0.63;;;;;;;6.83;100.00;99835.06;4946364;29;20045;-49
2023/01/30 07:24:38;;;;;;;0.20;0.20;;;;;;;6.91;100.00;99831.41;4946474;29;20035;-46
2023/01/30 07:27:08;;;;;;;0.20;0.20;;;;;;;6.60;100.00;99826.88;4954082;28;20046;-46
2023/01/30 07:29:35;;;;;;;0.15;0.15;;;;;;;6.82;100.00;99815.53;4950555;28;20518;-48
2023/01/30 07:32:01;;;;;;;0.20;0.20;;;;;;;6.47;100.00;99820.09;4955082;28;20482;-50
2023/01/30 07:34:47;;;;;;;0.20;0.20;;;;;;;6.66;100.00;99817.47;4948931;28;20050;-54
2023/01/30 07:37:13;;;;;;;0.20;0.20;;;;;;;6.56;100.00;99818.03;4920444;29;20438;-49
2023/01/30 07:39:38;;;;;;;0.20;0.20;;;;;;;6.51;100.00;99822.84;4912194;29;20050;-48
2023/01/30 07:42:04;;;;;;;0.17;0.17;;;;;;;6.65;100.00;99828.53;4915181;29;20129;-48
2023/01/30 07:44:29;;;;;;;0.20;0.20;;;;;;;6.60;100.00;99826.13;4918462;29;20088;-50
2023/01/30 07:46:55;;;;;;;0.20;0.20;;;;;;;6.82;100.00;99822.78;4946336;23;20057;-56
2023/01/30 07:49:20;;;;;;;0.10;0.10;;;;;;;6.69;100.00;99829.38;4946182;29;20079;-60
2023/01/30 07:51:46;;;;;;;0.10;0.10;;;;;;;6.93;100.00;99819.22;4938796;28;20042;-60
2023/01/30 07:54:11;;;;;;;0.45;0.45;;;;;;;6.96;100.00;99826.56;4941023;29;20031;-60
2023/01/30 07:56:37;;;;;;;1.95;1.80;;;;;;;6.59;100.00;99828.03;4950131;28;20398;-60
2023/01/30 07:59:04;;;;;;;0.20;0.20;;;;;;;6.50;100.00;99835.47;4932780;29;20110;-60
2023/01/30 08:01:30;;;;;;;0.40;0.40;;;;;;;6.79;100.00;99828.84;4949317;29;20118;-60
2023/01/30 08:03:56;;;;;;;0.20;0.20;;;;;;;7.15;100.00;99829.25;4946336;28;20122;-62
2023/01/30 08:06:22;;;;;;;0.20;0.20;;;;;;;7.14;100.00;99837.63;4948552;28;20027;-58
2023/01/30 08:08:48;;;;;;;0.20;0.20;;;;;;;7.24;100.00;99820.97;4941418;28;20057;-57
2023/01/30 08:11:13;;;;;;;0.20;0.20;;;;;;;7.07;100.00;99810.69;4933242;28;20039;-59
2023/01/30 08:13:39;;;;;;;0.20;0.20;;;;;;;6.85;100.00;99822.09;4941201;28;20063;-60
2023/01/30 08:16:06;;;;;;;0.20;0.20;;;;;;;7.29;100.00;99836.78;4953784;29;20441;-57
2023/01/30 08:18:33;;;;;;;0.20;0.20;;;;;;;7.39;100.00;99846.16;4952756;29;20027;-57
2023/01/30 08:21:00;;;;;;;0.50;0.50;;;;;;;6.82;100.00;99849.53;4949050;29;20046;-57
2023/01/30 08:23:27;;;;;;;0.30;0.30;;;;;;;7.16;100.00;99836.13;4951326;28;20421;-57
2023/01/30 08:26:01;;;;;;;0.30;0.30;;;;;;;7.02;100.00;99835.88;4952554;28;20414;-54
2023/01/30 08:28:27;;;;;;;0.40;0.30;;;;;;;7.21;100.00;99835.88;4949826;28;20081;-55
2023/01/30 08:30:53;;;;;;;0.20;0.20;;;;;;;7.19;100.00;99827.41;4952768;28;20422;-55
2023/01/30 08:33:20;;;;;;;0.10;0.10;;;;;;;7.10;100.00;99812.69;4953802;29;20035;-58
2023/01/30 08:35:46;;;;;;;0.22;0.22;;;;;;;7.41;100.00;99831.28;4943009;28;20043;-57
2023/01/30 08:38:12;;;;;;;0.22;0.22;;;;;;;7.05;100.00;99839.72;4950066;29;20034;-57
2023/01/30 08:40:38;;;;;;;0.20;0.20;;;;;;;6.90;100.00;99838.66;4953525;28;20035;-59
2023/01/30 08:43:04;;;;;;;0.20;0.20;;;;;;;6.96;100.00;99833.81;4950464;29;20126;-58
2023/01/30 08:45:30;;;;;;;0.63;0.63;;;;;;;7.05;100.00;99829.78;4933246;28;20186;-57
2023/01/30 08:48:04;;;;;;;0.20;0.20;;;;;;;6.93;100.00;99829.16;4937179;29;20486;-57
2023/01/30 08:50:30;;;;;;;0.30;0.30;;;;;;;6.71;100.00;99811.88;4933678;29;20044;-56
2023/01/30 08:52:56;;;;;;;0.20;0.20;;;;;;;6.62;100.00;99823.91;4936037;29;20042;-58
2023/01/30 08:55:21;;;;;;;0.20;0.20;;;;;;;6.99;100.00;99828.50;4941615;29;20031;-58
2023/01/30 08:57:47;;;;;;;0.80;0.80;;;;;;;7.09;100.00;99825.28;4940354;29;20087;-56
2023/01/30 09:00:14;;;;;;;0.20;0.20;;;;;;;7.38;100.00;99834.66;4948040;28;20069;-61
2023/01/30 09:02:39;;;;;;;0.10;0.10;;;;;;;7.14;100.00;99816.97;4959157;28;20042;-58
2023/01/30 09:05:06;;;;;;;0.17;0.17;;;;;;;7.29;100.00;99826.84;4950317;29;20135;-61
2023/01/30 09:07:31;;;;;;;0.10;0.10;;;;;;;7.47;100.00;99819.13;4951382;28;20035;-60
2023/01/30 09:09:57;;;;;;;0.20;0.20;;;;;;;7.10;100.00;99823.41;4933649;29;20392;-57
2023/01/30 09:12:22;;;;;;;0.15;0.15;;;;;;;6.95;100.00;99825.00;4934554;29;20034;-57
2023/01/30 09:14:48;;;;;;;0.20;0.20;;;;;;;7.18;100.00;99809.03;4937058;29;20028;-58
2023/01/30 09:17:13;;;;;;;0.13;0.13;;;;;;;7.58;100.00;99816.66;4935089;29;20095;-60
2023/01/30 09:19:39;;;;;;;0.47;0.47;;;;;;;8.03;98.90;99822.06;4937137;29;20115;-60
2023/01/30 09:22:06;;;;;;;0.25;0.25;;;;;;;8.22;98.35;99819.31;4932537;29;20031;-58
2023/01/30 09:24:32;;;;;;;0.25;0.25;;;;;;;8.38;96.12;99822.66;4939620;29;20700;-54
2023/01/30 09:26:57;;;;;;;0.70;0.57;;;;;;;8.07;95.85;99812.94;4935684;29;20047;-58
2023/01/30 09:29:26;;;;;;;1.20;1.17;;;;;;;8.33;94.53;99820.28;4938975;29;20031;-56
2023/01/30 09:31:53;;;;;;;0.20;0.20;;;;;;;8.08;95.17;99827.91;4946379;29;20118;-53
2023/01/30 09:34:18;;;;;;;0.20;0.20;;;;;;;7.62;97.12;99820.19;4941403;28;20524;-60
2023/01/30 09:36:44;;;;;;;0.20;0.20;;;;;;;7.65;98.08;99819.47;4934968;29;20130;-57
2023/01/30 09:39:09;;;;;;;0.10;0.10;;;;;;;7.64;98.06;99815.25;4934927;29;20038;-52
2023/01/30 09:41:48;;;;;;;0.30;0.30;;;;;;;7.81;97.36;99804.06;4938432;29;20039;-57
2023/01/30 09:44:23;;;;;;;0.20;0.20;;;;;;;8.11;94.97;99810.31;4932758;29;20038;-59
2023/01/30 09:47:02;;;;;;;0.20;0.20;;;;;;;8.16;94.13;99810.03;4933818;29;20093;-59
2023/01/30 09:49:58;;;;;;;0.20;0.20;;;;;;;7.66;95.98;99804.97;4936987;29;20502;-55
2023/01/30 09:52:56;;;;;;;0.52;0.52;;;;;;;8.10;94.25;99800.72;4940942;29;20034;-55
2023/01/30 09:55:28;;;;;;;0.20;0.20;;;;;;;8.37;93.79;99810.38;4930260;29;20027;-59
2023/01/30 09:57:56;;;;;;;0.30;0.30;;;;;;;8.46;93.57;99805.53;4928871;29;20376;-57
2023/01/30 10:00:33;;;;;;;0.45;0.43;;;;;;;8.42;93.67;99807.38;4934600;29;20055;-57
2023/01/30 10:03:10;;;;;;;0.13;0.13;;;;;;;8.11;95.31;99792.31;4920672;29;20036;-54
2023/01/30 10:05:41;;;;;;;0.20;0.20;;;;;;;8.29;95.04;99803.34;4929068;28;20529;-58
2023/01/30 10:08:29;;;;;;;0.60;0.60;;;;;;;8.05;96.91;99787.63;4936990;29;20159;-57
2023/01/30 10:11:02;;;;;;;0.10;0.10;;;;;;;8.08;96.26;99793.06;4931345;28;20549;-59
2023/01/30 10:13:43;;;;;;;0.40;0.40;;;;;;;7.88;96.80;99798.81;4927491;29;20040;-62
2023/01/30 10:16:23;;;;;;;0.10;0.10;;;;;;;8.11;96.41;99800.38;4942328;28;20094;-61
2023/01/30 10:19:13;;;;;;;0.10;0.10;;;;;;;7.73;97.73;99802.41;4953480;28;20078;-60
2023/01/30 10:21:56;;;;;;;0.20;0.20;;;;;;;7.57;99.03;99791.78;4938416;29;20161;-52
2023/01/30 10:24:59;;;;;;;0.10;0.10;;;;;;;7.59;98.74;99788.75;4942282;29;20039;-55
2023/01/30 10:27:32;;;;;;;0.30;0.30;;;;;;;7.14;100.00;99784.84;4942172;29;20039;-60
2023/01/30 10:30:02;;;;;;;0.20;0.20;;;;;;;7.24;100.00;99773.56;4940647;29;20047;-60
2023/01/30 10:32:52;;;;;;;0.20;0.20;;;;;;;7.16;100.00;99795.22;4946740;29;20413;-60
2023/01/30 10:35:32;;;;;;;0.30;0.30;;;;;;;7.10;100.00;99797.38;4938251;29;20107;-58
2023/01/30 10:38:25;;;;;;;0.25;0.25;;;;;;;6.75;100.00;99788.66;4945235;29;20038;-58
2023/01/30 10:41:24;;;;;;;0.20;0.20;;;;;;;6.69;100.00;99797.28;4942000;29;20046;-59
2023/01/30 10:44:03;;;;;;;0.20;0.20;;;;;;;6.87;100.00;99769.03;4937174;29;20054;-58
2023/01/30 10:46:46;;;;;;;0.20;0.20;;;;;;;6.53;100.00;99745.72;4939546;29;20035;-60
2023/01/30 10:49:42;;;;;;;0.20;0.20;;;;;;;6.86;100.00;99754.06;4934984;29;20119;-59
2023/01/30 10:52:20;;;;;;;0.28;0.28;;;;;;;7.10;100.00;99759.16;4935943;29;20497;-60
2023/01/30 10:55:07;;;;;;;0.20;0.20;;;;;;;7.21;100.00;99744.84;4934261;29;20534;-59
2023/01/30 10:57:44;;;;;;;0.17;0.17;;;;;;;7.10;100.00;99754.56;4910739;29;20039;-59
2023/01/30 11:00:23;;;;;;;1.35;1.33;;;;;;;6.85;100.00;99737.25;4939444;29;20058;-58
2023/01/30 11:03:47;;;;;;;0.20;0.20;;;;;;;7.21;100.00;99739.50;4938054;28;20122;-58
2023/01/30 11:06:15;;;;;;;0.20;0.20;;;;;;;7.40;100.00;99745.91;4895110;28;20775;-60
2023/01/30 11:08:42;;;;;;;0.20;0.20;;;;;;;7.34;100.00;99732.06;4952468;28;20035;-60
2023/01/30 11:11:32;;;;;;;0.20;0.20;;;;;;;7.16;100.00;99761.19;4942102;28;20105;-60
2023/01/30 11:14:06;;;;;;;0.20;0.20;;;;;;;7.08;100.00;99759.47;4942862;28;20054;-58
2023/01/30 11:16:39;;;;;;;0.20;0.20;;;;;;;6.92;100.00;99785.56;4937280;28;20110;-59
2023/01/30 11:19:05;;;;;;;0.15;0.15;;;;;;;6.34;100.00;99786.59;4938564;28;20483;-59
2023/01/30 11:21:31;;;;;;;0.20;0.20;;;;;;;5.99;100.00;99799.88;4939388;28;20063;-60
2023/01/30 11:24:03;;;;;;;0.20;0.20;;;;;;;6.17;100.00;99794.97;4940537;28;20066;-60
2023/01/30 11:26:32;;;;;;;0.20;0.20;;;;;;;5.95;100.00;99816.94;4946773;28;20031;-59
2023/01/30 11:28:58;;;;;;;0.20;0.20;;;;;;;6.02;100.00;99801.09;4940418;28;20055;-58
2023/01/30 11:31:29;;;;;;;0.20;0.20;;;;;;;5.83;100.00;99815.13;4936289;28;20081;-59
2023/01/30 11:34:00;;;;;;;0.20;0.20;;;;;;;5.76;100.00;99822.16;4940360;28;20110;-57
2023/01/30 11:36:29;;;;;;;0.20;0.20;;;;;;;6.12;100.00;99811.25;4943933;28;20031;-59
2023/01/30 11:39:00;;;;;;;0.20;0.20;;;;;;;6.43;100.00;99810.47;4947487;28;20043;-60
2023/01/30 11:41:25;;;;;;;0.20;0.20;;;;;;;6.42;100.00;99806.22;4936399;28;20050;-59
2023/01/30 11:43:59;;;;;;;0.20;0.20;;;;;;;6.43;100.00;99797.09;4937828;28;20118;-58
2023/01/30 11:46:27;;;;;;;0.20;0.20;;;;;;;6.53;100.00;99804.56;4936562;28;20047;-60
2023/01/30 11:48:59;;;;;;;0.20;0.20;;;;;;;6.30;100.00;99799.88;4930664;28;20414;-61
2023/01/30 11:51:24;;;;;;;;;;;;;;;6.20;100.00;99795.06;4942534;28;20513;-61
2023/01/30 11:54:03;;;;;;;0.65;0.65;;;;;;;6.23;100.00;99799.69;4942987;28;19914;-58
2023/01/30 11:56:38;;;;;;;0.20;0.20;;;;;;;6.15;100.00;99799.88;4940046;28;20039;-61